Data for 05/26/2017

Time Sea-Level Adjusted Pressure Absolute Pressure Temperature Relative Humidity Dew Point   
(mb) (inHg) (mb) (inHg) (C) (F) (%) (C) (F)
00:05 1015 29.97 844 24.92 3.3 37.9 68 -2.1 28.2
00:10 1015 29.97 844 24.92 2.9 37.3 69 -2.3 27.9
00:15 1015 29.97 844 24.92 2.9 37.2 68 -2.4 27.7
00:20 1015 29.97 844 24.92 3.1 37.5 67 -2.4 27.7
00:25 1015 29.97 844 24.92 3.2 37.7 66 -2.5 27.5
00:30 1015 29.97 844 24.92 3.2 37.8 66 -2.4 27.6
00:35 1015 29.97 844 24.92 3.3 37.9 64 -2.9 26.7
00:40 1015 29.97 844 24.92 3.9 39 61 -2.8 26.9
00:45 1015 29.97 844 24.92 4.2 39.5 62 -2.5 27.5
00:50 1015 29.97 844 24.92 4 39.1 63 -2.3 27.8
00:55 1015 29.97 844 24.92 3.7 38.6 64 -2.4 27.6
01:00 1015 29.97 844 24.92 3.5 38.3 65 -2.4 27.6
01:05 1015 29.97 844 24.92 3.3 38 66 -2.3 27.8
01:10 1015 29.97 844 24.92 3.3 37.9 65 -2.6 27.3
01:15 1015 29.97 845 24.95 3.6 38.5 63 -2.7 27.1
01:20 1015 29.97 845 24.95 3.9 39 62 -2.6 27.3
01:25 1015 29.97 845 24.95 4.1 39.4 61 -2.7 27.1
01:30 1015 29.97 845 24.95 4.3 39.7 60 -2.8 27
01:35 1015 29.97 845 24.95 4.3 39.8 60 -2.8 27
01:40 1015 29.97 845 24.95 4.2 39.6 61 -2.7 27.2
01:45 1015 29.97 845 24.95 4 39.2 63 -2.4 27.7
01:50 1015 29.97 845 24.95 3.5 38.4 67 -2.1 28.2
01:55 1016 30 845 24.95 3.1 37.5 67 -2.4 27.6
02:00 1015 29.97 845 24.95 3 37.5 68 -2.4 27.7
02:05 1016 30 845 24.95 3.1 37.5 67 -2.5 27.6
02:10 1015 29.97 845 24.95 3.1 37.6 67 -2.5 27.5
02:15 1015 29.97 845 24.95 3.1 37.6 67 -2.4 27.6
02:20 1015 29.97 845 24.95 3.1 37.5 67 -2.4 27.6
02:25 1015 29.97 845 24.95 3.1 37.6 67 -2.5 27.5
02:30 1016 30 845 24.95 3.1 37.6 67 -2.4 27.6
02:35 1015 29.97 845 24.95 3 37.5 68 -2.3 27.8
02:40 1016 30 845 24.95 2.8 37.1 69 -2.2 28
02:45 1016 30 845 24.95 2.7 36.8 70 -2.4 27.8
02:50 1016 30 845 24.95 2.7 36.8 69 -2.4 27.7
02:55 1016 30 845 24.95 2.7 36.9 69 -2.4 27.6
03:00 1016 30 845 24.95 2.7 36.8 69 -2.5 27.5
03:05 1016 30 845 24.95 2.9 37.3 67 -2.5 27.4
03:10 1016 30 845 24.95 2.9 37.3 68 -2.4 27.7
03:15 1016 30 845 24.95 2.8 37 69 -2.4 27.7
03:20 1016 30 845 24.95 3 37.4 67 -2.6 27.3
03:25 1016 30 845 24.95 3.2 37.8 66 -2.5 27.5
03:30 1016 30 845 24.95 3.2 37.8 66 -2.5 27.4
03:35 1016 30 845 24.95 3.3 37.9 66 -2.5 27.5
03:40 1016 30 845 24.95 3.2 37.8 67 -2.4 27.6
03:45 1016 30 845 24.95 3 37.4 67 -2.5 27.4
03:50 1016 30 845 24.95 3.1 37.5 67 -2.6 27.4
03:55 1016 30 845 24.95 3.1 37.5 68 -2.4 27.7
04:00 1016 30 845 24.95 2.9 37.3 68 -2.5 27.5
04:05 1016 30 845 24.95 2.9 37.3 68 -2.4 27.6
04:10 1015 29.97 845 24.95 2.9 37.2 68 -2.5 27.5
04:15 1015 29.97 845 24.95 3.1 37.5 67 -2.5 27.5
04:20 1015 29.97 845 24.95 3.1 37.5 67 -2.4 27.7
04:25 1015 29.97 844 24.92 3.1 37.6 66 -2.5 27.4
04:30 1015 29.97 844 24.92 3.2 37.7 66 -2.5 27.6
04:35 1015 29.97 844 24.92 3.2 37.8 66 -2.6 27.4
04:40 1015 29.97 844 24.92 3.2 37.7 67 -2.4 27.6
04:45 1015 29.97 845 24.95 3.1 37.5 67 -2.4 27.7
04:50 1016 30 845 24.95 2.9 37.2 68 -2.4 27.7
04:55 1016 30 845 24.95 2.8 37.1 68 -2.5 27.5
05:00 1016 30 845 24.95 3 37.4 67 -2.5 27.4
05:05 1015 29.97 845 24.95 3 37.5 67 -2.5 27.5
05:10 1016 30 845 24.95 3 37.4 66 -2.7 27.2
05:15 1016 30 845 24.95 3.3 37.9 66 -2.5 27.6
05:20 1016 30 845 24.95 3.1 37.6 67 -2.4 27.8
05:25 1016 30 845 24.95 3 37.4 67 -2.5 27.5
05:30 1016 30 845 24.95 3.1 37.6 67 -2.4 27.6
05:35 1016 30 845 24.95 3.3 38 66 -2.4 27.6
05:40 1016 30 845 24.95 3.4 38.1 66 -2.4 27.8
05:45 1016 30 845 24.95 3.4 38.1 66 -2.3 27.9
05:50 1016 30 845 24.95 3.5 38.4 66 -2.3 27.9
05:55 1016 30 845 24.95 3.7 38.7 65 -2.2 28.1
06:00 1016 30 845 24.95 3.9 39 65 -2.1 28.3
06:05 1016 30 845 24.95 4 39.1 64 -2.2 28
06:10 1016 30 845 24.95 4.2 39.6 63 -2.1 28.2
06:15 1016 30 845 24.95 4.5 40.2 61 -2.2 28
06:20 1016 30 845 24.95 5.1 41.1 60 -2 28.4
06:25 1016 30 845 24.95 5.4 41.7 58 -2.1 28.2
06:30 1016 30 845 24.95 5.8 42.4 59 -1.7 28.9
06:35 1016 30 845 24.95 5.7 42.3 59 -1.6 29.1
06:40 1016 30 845 24.95 6.2 43.2 57 -1.7 29
06:45 1016 30 845 24.95 6.2 43.1 57 -1.6 29.1
06:50 1016 30 845 24.95 5.8 42.4 58 -1.9 28.5
06:55 1016 30 845 24.95 6.2 43.2 57 -1.6 29
07:00 1016 30 845 24.95 6.1 43 55 -2.1 28.2
07:05 1016 30 845 24.95 7.2 45 53 -1.7 28.9
07:10 1016 30 845 24.95 7.2 44.9 55 -1.4 29.6
07:15 1016 30 845 24.95 7.3 45.1 52 -1.8 28.7
07:20 1016 30 845 24.95 7.9 46.3 52 -1.4 29.5
07:25 1016 30 845 24.95 8.1 46.5 49 -2 28.4
07:30 1016 30 845 24.95 8.1 46.6 51 -1.3 29.6
07:35 1016 30 845 24.95 7.5 45.4 52 -1.6 29.1
07:40 1016 30 845 24.95 8 46.4 50 -1.7 29
07:45 1016 30 845 24.95 8.2 46.7 51 -1.3 29.6
07:50 1016 30 845 24.95 8.1 46.5 50 -1.6 29.1
07:55 1016 30 845 24.95 8 46.3 51 -1.4 29.4
08:00 1016 30 845 24.95 8.2 46.8 46 -2.6 27.4
08:05 1016 30 845 24.95 8.1 46.7 51 -1.5 29.3
08:10 1016 30 845 24.95 7.9 46.2 51 -1.5 29.3
08:15 1016 30 845 24.95 7.9 46.2 55 -0.6 31
08:20 1016 30 845 24.95 8.3 47 50 -1.4 29.5
08:25 1016 30 845 24.95 8.8 47.8 49 -1.4 29.5
08:30 1016 30 845 24.95 9.2 48.6 49 -1 30.3
08:35 1016 30 845 24.95 9.7 49.4 46 -1.3 29.7
08:40 1016 30 845 24.95 9.3 48.7 47 -1.3 29.7
08:45 1016 30 845 24.95 10.1 50.2 42 -2 28.3
08:50 1016 30 845 24.95 10.9 51.6 42 -1.4 29.5
08:55 1016 30 845 24.95 11.1 51.9 42 -1.4 29.5
09:00 1016 30 845 24.95 10.9 51.7 43 -1.2 29.9
09:05 1016 30 845 24.95 11 51.8 43 -1 30.2
09:10 1016 30 845 24.95 11.4 52.5 42 -1 30.2
09:15 1016 30 845 24.95 11.8 53.3 40 -1.3 29.6
09:20 1016 30 845 24.95 12.2 54 40 -0.9 30.4
09:25 1016 30 845 24.95 10.9 51.5 43 -1.1 30
09:30 1016 30 845 24.95 11.6 52.8 41 -1.4 29.6
09:35 1016 30 845 24.95 12.4 54.3 39 -1.2 29.9
09:40 1015 29.97 845 24.95 12.7 54.9 38 -1 30.1
09:45 1015 29.97 845 24.95 12.6 54.7 38 -1.3 29.7
09:50 1015 29.97 845 24.95 11.9 53.5 40 -1.1 30
09:55 1015 29.97 845 24.95 13.2 55.7 36 -1.3 29.6
10:00 1015 29.97 845 24.95 13.2 55.8 37 -0.9 30.4
10:05 1015 29.97 845 24.95 13.1 55.5 37 -1.1 30
10:10 1015 29.97 844 24.92 12.4 54.3 38 -1.5 29.4
10:15 1015 29.97 845 24.95 12.8 55 38 -1.3 29.7
10:20 1015 29.97 845 24.95 12.4 54.2 37 -1.8 28.7
10:25 1015 29.97 845 24.95 13.4 56.1 36 -1.4 29.4
10:30 1015 29.97 845 24.95 14.3 57.8 33 -1.5 29.2
10:35 1015 29.97 845 24.95 13.6 56.5 36 -1 30.1
10:40 1015 29.97 845 24.95 13.5 56.3 36 -1.2 29.8
10:45 1015 29.97 845 24.95 13.2 55.8 37 -0.9 30.3
10:50 1015 29.97 845 24.95 13.3 55.9 36 -1.4 29.5
10:55 1015 29.97 845 24.95 13.9 56.9 33 -1.9 28.6
11:00 1015 29.97 845 24.95 13.8 56.9 34 -1.7 28.9
11:05 1015 29.97 844 24.92 13.9 57 34 -1.7 29
11:10 1015 29.97 844 24.92 14 57.2 34 -1.3 29.6
11:15 1015 29.97 844 24.92 13.8 56.9 35 -1.3 29.6
11:20 1015 29.97 844 24.92 12.5 54.6 39 -1.1 30
11:25 1015 29.97 844 24.92 12.8 55.1 37 -1.3 29.6
11:30 1015 29.97 844 24.92 14 57.3 34 -1.6 29.2
11:35 1015 29.97 844 24.92 13.7 56.6 33 -2.4 27.7
11:40 1015 29.97 844 24.92 14.8 58.7 32 -1.6 29.1
11:45 1015 29.97 844 24.92 14.9 58.9 32 -1.7 28.9
11:50 1015 29.97 844 24.92 14.4 58 31 -2.5 27.5
11:55 1015 29.97 844 24.92 13.9 57 32 -2.5 27.5
12:00 1015 29.97 844 24.92 13.8 56.8 32 -2.4 27.7
12:05 1015 29.97 844 24.92 14 57.3 34 -1.7 29
12:10 1015 29.97 844 24.92 14 57.1 34 -1.7 28.9
12:15 1015 29.97 844 24.92 13.5 56.3 34 -1.8 28.7
12:20 1015 29.97 844 24.92 13.3 55.9 35 -1.9 28.6
12:25 1015 29.97 844 24.92 13.4 56 35 -1.7 28.9
12:30 1015 29.97 844 24.92 12.7 54.9 37 -1.6 29.2
12:35 1015 29.97 844 24.92 13.1 55.5 34 -2.4 27.6
12:40 1015 29.97 844 24.92 13.6 56.5 34 -2 28.5
12:45 1015 29.97 844 24.92 13.8 56.9 32 -2.5 27.5
12:50 1015 29.97 844 24.92 13.8 56.8 32 -2.7 27.2
12:55 1015 29.97 844 24.92 14.5 58.2 30 -2.7 27.2
13:00 1015 29.97 844 24.92 14 57.1 33 -2.1 28.1
13:05 1015 29.97 844 24.92 13.7 56.6 29 -3.8 25.1
13:10 1015 29.97 844 24.92 13.7 56.7 31 -3 26.6
13:15 1015 29.97 844 24.92 13.6 56.4 31 -3.1 26.4
13:20 1015 29.97 844 24.92 13.2 55.8 31 -3.4 25.9
13:25 1015 29.97 844 24.92 13.3 55.9 31 -3.4 25.8
13:30 1015 29.97 844 24.92 13.3 55.9 31 -3.5 25.8
13:35 1015 29.97 844 24.92 13.4 56.1 31 -3.4 25.8
13:40 1015 29.97 844 24.92 14.1 57.4 29 -3.6 25.6
13:45 1015 29.97 844 24.92 14.7 58.4 29 -3.2 26.2
13:50 1015 29.97 844 24.92 14.5 58.2 29 -3.2 26.2
13:55 1015 29.97 844 24.92 13.8 56.9 30 -3.2 26.2
14:00 1015 29.97 844 24.92 13.8 56.8 30 -3.5 25.6
14:05 1015 29.97 844 24.92 13.7 56.7 31 -3 26.6
14:10 1015 29.97 844 24.92 13.5 56.3 31 -3.2 26.2
14:15 1015 29.97 844 24.92 13.7 56.6 30 -3.4 25.9
14:20 1015 29.97 844 24.92 13.6 56.6 30 -3.4 25.9
14:25 1015 29.97 845 24.95 13.5 56.2 32 -3 26.6
14:30 1015 29.97 845 24.95 13.4 56.1 32 -3.1 26.5
14:35 1015 29.97 845 24.95 13.3 55.9 32 -2.9 26.7
14:40 1015 29.97 845 24.95 13.2 55.7 33 -2.7 27.2
14:45 1015 29.97 845 24.95 13.3 55.9 33 -2.8 27
14:50 1016 30 845 24.95 13.2 55.8 33 -2.6 27.2
14:55 1016 30 845 24.95 12.9 55.3 34 -2.7 27.2
15:00 1016 30 845 24.95 13 55.4 33 -2.7 27.1
15:05 1016 30 845 24.95 12.8 55.1 34 -2.7 27.2
15:10 1016 30 845 24.95 12.8 55 34 -2.5 27.5
15:15 1016 30 845 24.95 13 55.5 34 -2.5 27.6
15:20 1016 30 845 24.95 13 55.4 33 -3 26.6
15:25 1016 30 845 24.95 13.2 55.8 33 -2.7 27.1
15:30 1016 30 845 24.95 14 57.1 31 -2.9 26.7
15:35 1016 30 845 24.95 14.3 57.7 31 -2.4 27.6
15:40 1016 30 845 24.95 13.5 56.2 32 -3 26.6
15:45 1016 30 845 24.95 13.3 56 31 -3.4 25.9
15:50 1016 30 845 24.95 13.3 56 32 -3.1 26.4
15:55 1016 30 845 24.95 13.4 56.2 32 -2.9 26.7
16:00 1016 30 845 24.95 13.6 56.5 32 -2.8 27
16:05 1016 30 845 24.95 14.1 57.3 31 -2.8 27
16:10 1016 30 845 24.95 14.4 57.8 29 -3.4 26
16:15 1016 30 845 24.95 15.1 59.2 28 -3.3 26.1
16:20 1016 30 845 24.95 15 59.1 31 -1.8 28.8
16:25 1016 30 845 24.95 14.8 58.6 31 -2.2 28.1
16:30 1016 30 845 24.95 14.8 58.6 30 -2.3 27.8
16:35 1016 30 845 24.95 14.1 57.4 31 -2.6 27.2
16:40 1016 30 845 24.95 13.9 56.9 32 -2.5 27.5
16:45 1016 30 845 24.95 13.7 56.7 32 -2.5 27.4
16:50 1016 30 845 24.95 13.8 56.8 32 -2.4 27.7
16:55 1016 30 845 24.95 13.7 56.7 32 -2.6 27.3
17:00 1016 30 845 24.95 14.3 57.7 31 -2.7 27.2
17:05 1016 30 845 24.95 14.3 57.8 32 -2.3 27.9
17:10 1016 30 845 24.95 14.1 57.3 34 -1.7 29
17:15 1016 30 845 24.95 13.5 56.3 40 0.2 32.3
17:20 1016 30 845 24.95 12.4 54.3 44 0.5 33
17:25 1016 30 846 24.98 11.9 53.5 47 0.9 33.7
17:30 1016 30 846 24.98 11.9 53.4 44 0 32.1
17:35 1017 30.03 846 24.98 12.2 54 42 -0.4 31.3
17:40 1017 30.03 846 24.98 12.6 54.6 38 -1.3 29.7
17:45 1016 30 846 24.98 12.6 54.6 36 -2 28.3
17:50 1016 30 845 24.95 12.7 54.8 34 -2.8 26.9
17:55 1016 30 845 24.95 13.2 55.8 29 -4.2 24.5
18:00 1016 30 845 24.95 13.8 56.8 30 -3.4 25.9
18:05 1016 30 846 24.98 13.6 56.5 38 -0.5 31.2
18:10 1016 30 846 24.98 12.8 55.1 40 -0.4 31.4
18:15 1017 30.03 846 24.98 12.3 54.2 43 0.1 32.2
18:20 1017 30.03 846 24.98 12.1 53.8 45 0.6 33.2
18:25 1017 30.03 846 24.98 11.6 52.9 47 0.8 33.4
18:30 1017 30.03 846 24.98 11.1 51.9 48 0.6 33
18:35 1017 30.03 846 24.98 10.7 51.3 49 0.4 32.8
18:40 1017 30.03 846 24.98 10.4 50.8 51 0.7 33.3
18:45 1017 30.03 846 24.98 10.3 50.5 51 0.5 33
18:50 1017 30.03 846 24.98 10.2 50.4 51 0.5 32.9
18:55 1017 30.03 846 24.98 10.1 50.2 52 0.8 33.4
19:00 1017 30.03 846 24.98 9.9 49.8 55 1.2 34.2
19:05 1017 30.03 846 24.98 9.8 49.6 55 1.2 34.2
19:10 1017 30.03 846 24.98 9.8 49.6 54 1.1 34
19:15 1017 30.03 846 24.98 9.8 49.6 55 1.1 34
19:20 1017 30.03 846 24.98 9.7 49.4 55 1.1 34
19:25 1017 30.03 846 24.98 9.6 49.3 55 1 33.7
19:30 1017 30.03 846 24.98 9.6 49.2 55 0.9 33.7
19:35 1017 30.03 847 25.01 9.4 49 56 1.2 34.1
19:40 1017 30.03 847 25.01 9.3 48.7 57 1.1 34
19:45 1017 30.03 847 25.01 9.2 48.6 57 1.1 34
19:50 1017 30.03 847 25.01 9.2 48.5 58 1.3 34.4
19:55 1018 30.06 847 25.01 9.1 48.4 58 1.4 34.5
20:00 1018 30.06 847 25.01 9.1 48.4 59 1.5 34.8
20:05 1018 30.06 847 25.01 9 48.3 59 1.4 34.6
20:10 1018 30.06 847 25.01 9 48.2 60 1.6 34.8
20:15 1018 30.06 847 25.01 8.9 48 60 1.5 34.7
20:20 1018 30.06 847 25.01 8.9 48 60 1.6 34.8
20:25 1018 30.06 847 25.01 9.1 48.4 58 1.3 34.3
20:30 1018 30.06 848 25.04 9.8 49.6 51 0.2 32.4
20:35 1019 30.09 848 25.04 10.2 50.3 51 0.5 32.8
20:40 1019 30.09 848 25.04 10.3 50.5 52 0.8 33.4
20:45 1019 30.09 848 25.04 10.3 50.6 51 0.8 33.4
20:50 1019 30.09 848 25.04 10.3 50.5 50 0.4 32.6
20:55 1019 30.09 848 25.04 10.3 50.5 51 0.7 33.3
21:00 1019 30.09 848 25.04 10.2 50.4 52 0.8 33.4
21:05 1019 30.09 848 25.04 10.1 50.3 54 1.2 34.2
21:10 1019 30.09 848 25.04 9.9 49.9 57 1.8 35.2
21:15 1019 30.09 848 25.04 9.4 49 58 1.7 35.1
21:20 1019 30.09 848 25.04 9.2 48.5 60 1.9 35.5
21:25 1019 30.09 848 25.04 9 48.1 61 2 35.5
21:30 1019 30.09 848 25.04 8.8 47.8 63 2.1 35.8
21:35 1019 30.09 848 25.04 8.7 47.6 63 2 35.6
21:40 1019 30.09 848 25.04 8.7 47.7 63 2.1 35.7
21:45 1019 30.09 848 25.04 8.6 47.4 64 2.1 35.7
21:50 1019 30.09 848 25.04 8.5 47.2 63 1.9 35.5
21:55 1019 30.09 848 25.04 8.6 47.4 61 1.5 34.7
22:00 1019 30.09 849 25.07 8.9 48 59 1.2 34.2
22:05 1019 30.09 849 25.07 9.3 48.8 57 1.4 34.5
22:10 1020 30.12 849 25.07 9.4 48.9 57 1.4 34.4
22:15 1020 30.12 849 25.07 9.5 49.1 56 1.1 34
22:20 1019 30.09 849 25.07 9.5 49.2 56 1.3 34.3
22:25 1019 30.09 849 25.07 9.5 49.1 56 1.3 34.3
22:30 1019 30.09 849 25.07 9.5 49.1 56 1.2 34.2
22:35 1019 30.09 849 25.07 9.4 48.9 57 1.3 34.4
22:40 1020 30.12 849 25.07 9.2 48.5 58 1.3 34.4
22:45 1020 30.12 849 25.07 9.1 48.4 58 1.3 34.3
22:50 1020 30.12 849 25.07 9.1 48.4 57 1.1 34
22:55 1020 30.12 849 25.07 9.2 48.6 57 1.1 34
23:00 1020 30.12 849 25.07 9.3 48.7 57 1.3 34.4
23:05 1020 30.12 849 25.07 9 48.2 59 1.5 34.7
23:10 1020 30.12 849 25.07 8.8 47.9 60 1.4 34.5
23:15 1020 30.12 849 25.07 8.7 47.7 61 1.7 35
23:20 1020 30.12 849 25.07 8.4 47.2 64 2.1 35.8
23:25 1020 30.12 849 25.07 8 46.4 66 2 35.6
23:30 1020 30.12 849 25.07 7.7 45.8 67 2.1 35.7
23:35 1020 30.12 849 25.07 7.5 45.5 68 2.1 35.7
23:40 1020 30.12 849 25.07 7.3 45.2 69 2.1 35.8
23:45 1020 30.12 849 25.07 7.2 44.9 69 1.9 35.4
23:50 1020 30.12 849 25.07 7 44.6 71 2.1 35.7
23:55 1020 30.12 849 25.07 6.7 44.1 72 2 35.6
24:00 1020 30.12 849 25.07 6.5 43.7 73 2.1 35.8